Indianapolis, Indiana
Traffic Map
Current Weather Conditions
Indianapolis, Indiana
Scattered Clouds
Scattered Clouds
72°
Feels Like: 72°
Wind Chill: 72° Ceiling: Unl
Heat Index: 72° Visibility: 10mi
Dew Point: 67° Wind: 7mph
Humidity: 84% Direction: 40° (NE)
Pressure: 29.96in Gusts: 0mph
Raw Report DataKIND 190854Z 04006KT 10SM SCT070 22/19 A2996 RMK AO2 SLP135 T02220194 51004
Traffic Incident Summary
Active as of:
Severity:
Category:
InformationThere was an issue retrieving the traffic information for this location. Please try a different location or try again shortly.
Advertisements